createdAt,value
2019-05-06T00:00:14.005Z,99.90
2019-05-06T00:03:09.858Z,99.90
2019-05-06T00:06:06.426Z,99.90
2019-05-06T00:09:03.822Z,99.90
2019-05-06T00:12:01.170Z,99.90
2019-05-06T00:14:57.712Z,99.90
2019-05-06T00:17:54.247Z,99.90
2019-05-06T00:20:50.147Z,99.90
2019-05-06T00:23:50.859Z,99.90
2019-05-06T00:26:57.638Z,99.90
2019-05-06T00:29:54.991Z,99.90
2019-05-06T00:32:51.053Z,99.90
2019-05-06T00:35:47.381Z,99.90
2019-05-06T00:38:45.388Z,99.90
2019-05-06T00:41:43.380Z,99.90
2019-05-06T00:44:40.047Z,99.90
2019-05-06T00:47:36.726Z,99.90
2019-05-06T00:50:34.872Z,99.90
2019-05-06T00:53:34.599Z,99.90
2019-05-06T00:56:29.520Z,99.90
2019-05-06T00:59:26.905Z,99.90
2019-05-06T01:02:23.519Z,99.90
2019-05-06T01:05:20.053Z,99.90
2019-05-06T01:08:16.600Z,99.90
2019-05-06T01:11:14.384Z,99.90
2019-05-06T01:14:16.917Z,99.90
2019-05-06T01:17:13.414Z,99.90
2019-05-06T01:20:10.568Z,99.90
2019-05-06T01:23:05.990Z,99.90
2019-05-06T01:26:04.190Z,99.90
2019-05-06T01:28:59.996Z,99.90
2019-05-06T01:31:57.059Z,99.90
2019-05-06T01:34:53.795Z,99.90
2019-05-06T01:37:54.561Z,99.90
2019-05-06T01:41:03.994Z,99.90
2019-05-06T01:44:01.481Z,99.90
2019-05-06T01:46:58.989Z,99.90
2019-05-06T01:49:55.656Z,99.90
2019-05-06T01:52:51.344Z,99.90
2019-05-06T01:55:46.813Z,99.90
2019-05-06T01:58:43.954Z,99.90
2019-05-06T02:01:39.426Z,99.90
2019-05-06T02:04:35.419Z,99.90
2019-05-06T02:07:34.788Z,99.90
2019-05-06T02:10:29.877Z,99.90
2019-05-06T02:13:26.302Z,99.90
2019-05-06T02:16:23.927Z,99.90
2019-05-06T02:19:19.204Z,99.90
2019-05-06T02:22:21.453Z,99.90
2019-05-06T02:25:21.686Z,99.90
2019-05-06T02:28:17.541Z,99.90
2019-05-06T02:31:35.154Z,99.90
2019-05-06T02:34:37.193Z,99.90
2019-05-06T02:37:37.046Z,99.90
2019-05-06T02:40:33.439Z,99.90
2019-05-06T02:43:28.697Z,99.90
2019-05-06T02:46:24.378Z,99.90
2019-05-06T02:49:44.311Z,99.90
2019-05-06T02:52:43.762Z,99.90
2019-05-06T02:55:37.874Z,99.90
2019-05-06T02:58:34.298Z,99.90
2019-05-06T03:01:30.238Z,99.90
2019-05-06T03:04:25.038Z,99.90
2019-05-06T03:07:23.324Z,99.90
2019-05-06T03:10:24.278Z,99.90
2019-05-06T03:13:23.333Z,99.90
2019-05-06T03:16:16.887Z,99.90
2019-05-06T03:19:13.506Z,99.90
2019-05-06T03:22:28.718Z,99.90
2019-05-06T03:25:28.320Z,99.90
2019-05-06T03:28:23.685Z,99.90
2019-05-06T03:31:19.673Z,99.90
2019-05-06T03:34:36.489Z,99.90
2019-05-06T03:37:16.896Z,99.90
2019-05-06T03:40:13.854Z,99.90
2019-05-06T03:43:09.413Z,99.90
2019-05-06T03:46:27.289Z,99.90
2019-05-06T03:49:23.864Z,99.90
2019-05-06T03:52:22.928Z,99.90
2019-05-06T03:55:17.674Z,99.90
2019-05-06T03:58:14.360Z,99.90
2019-05-06T04:01:13.215Z,99.90
2019-05-06T04:04:09.339Z,99.90
2019-05-06T04:07:06.054Z,99.90
2019-05-06T04:10:03.437Z,99.90
2019-05-06T04:13:04.187Z,99.90
2019-05-06T04:16:07.547Z,99.90
2019-05-06T04:19:16.945Z,99.90
2019-05-06T04:22:33.041Z,99.90
2019-05-06T04:25:52.720Z,99.90
2019-05-06T04:28:49.550Z,99.90
2019-05-06T04:31:46.149Z,99.90
2019-05-06T04:34:43.139Z,99.90
2019-05-06T04:37:39.349Z,99.90
2019-05-06T04:40:35.003Z,99.90
2019-05-06T04:43:33.458Z,99.90
2019-05-06T04:46:28.612Z,99.90
2019-05-06T04:49:24.804Z,99.90
2019-05-06T04:52:22.865Z,99.90
2019-05-06T04:55:22.654Z,99.90
2019-05-06T04:58:18.794Z,99.90
2019-05-06T05:01:16.628Z,99.90
2019-05-06T05:04:24.586Z,99.90
2019-05-06T05:07:12.816Z,99.90
2019-05-06T05:10:17.799Z,99.90
2019-05-06T05:13:40.175Z,99.90
2019-05-06T05:16:53.392Z,99.90
2019-05-06T05:19:49.562Z,99.90
2019-05-06T05:22:46.384Z,99.90
2019-05-06T05:25:43.291Z,99.90
2019-05-06T05:28:39.987Z,99.90
2019-05-06T05:31:36.692Z,99.90
2019-05-06T05:34:40.234Z,99.90
2019-05-06T05:37:30.283Z,99.90
2019-05-06T05:40:26.360Z,99.90
2019-05-06T05:43:34.805Z,99.90
2019-05-06T05:46:32.900Z,99.90
2019-05-06T05:49:45.864Z,99.90
2019-05-06T05:56:39.965Z,99.90
2019-05-06T05:59:36.344Z,99.90
2019-05-06T06:02:33.352Z,99.90
2019-05-06T06:05:30.078Z,99.90
2019-05-06T06:08:26.084Z,99.90
2019-05-06T06:11:37.668Z,99.90
2019-05-06T06:14:55.341Z,99.90
2019-05-06T06:18:03.019Z,99.90
2019-05-06T06:21:21.252Z,99.90
2019-05-06T06:24:22.420Z,99.90
2019-05-06T06:27:18.440Z,99.90
2019-05-06T06:30:14.836Z,99.90
2019-05-06T06:33:12.723Z,99.90
2019-05-06T06:36:19.829Z,99.90
2019-05-06T06:39:20.466Z,99.90
2019-05-06T06:42:17.155Z,99.90
2019-05-06T06:45:13.489Z,99.90
2019-05-06T06:48:08.881Z,99.90
2019-05-06T06:51:04.245Z,99.90
2019-05-06T06:54:02.515Z,99.90
2019-05-06T06:57:09.296Z,99.90
2019-05-06T07:00:13.794Z,99.90
2019-05-06T07:03:12.552Z,99.90
2019-05-06T07:06:26.961Z,99.90
2019-05-06T07:09:23.484Z,99.90
2019-05-06T07:12:23.257Z,99.90
2019-05-06T07:15:22.208Z,99.90
2019-05-06T07:18:17.736Z,99.90
2019-05-06T07:21:34.757Z,99.90
2019-05-06T07:24:32.476Z,99.90
2019-05-06T07:27:29.365Z,99.90
2019-05-06T07:30:33.138Z,99.90
2019-05-06T07:33:28.689Z,99.90
2019-05-06T07:36:25.230Z,99.90
2019-05-06T07:39:23.778Z,99.90
2019-05-06T07:42:24.025Z,99.90
2019-05-06T07:45:37.377Z,99.90
2019-05-06T07:48:33.766Z,99.90
2019-05-06T07:51:32.469Z,99.90
2019-05-06T07:54:32.970Z,99.90
2019-05-06T07:57:29.707Z,99.90
2019-05-06T08:00:26.132Z,99.90
2019-05-06T08:03:22.304Z,99.90
2019-05-06T08:06:17.696Z,99.90
2019-05-06T08:09:13.936Z,99.90
2019-05-06T08:12:09.346Z,99.90
2019-05-06T08:15:06.320Z,98.00
2019-05-06T08:18:03.772Z,93.10
2019-05-06T08:21:02.724Z,92.30
2019-05-06T08:23:58.651Z,93.20
2019-05-06T08:26:55.276Z,93.80
2019-05-06T08:29:52.480Z,92.40
2019-05-06T08:32:48.192Z,94.60
2019-05-06T08:35:44.473Z,94.40
2019-05-06T08:38:59.703Z,90.40
2019-05-06T08:41:55.752Z,84.60
2019-05-06T08:44:53.015Z,85.50
2019-05-06T08:47:49.007Z,86.50
2019-05-06T08:50:52.954Z,86.60
2019-05-06T08:53:53.384Z,87.10
2019-05-06T08:56:52.321Z,88.80
2019-05-06T08:59:49.242Z,91.50
2019-05-06T09:02:46.250Z,95.10
2019-05-06T09:05:43.670Z,92.10
2019-05-06T09:08:39.064Z,90.70
2019-05-06T09:11:34.173Z,90.20
2019-05-06T09:14:29.114Z,90.90
2019-05-06T09:17:25.439Z,91.80
2019-05-06T09:20:23.439Z,93.40
2019-05-06T09:23:19.074Z,94.80
2019-05-06T09:26:17.439Z,96.10
2019-05-06T09:29:16.715Z,95.60
2019-05-06T09:32:17.303Z,96.50
2019-05-06T09:35:13.126Z,96.50
2019-05-06T09:38:09.355Z,94.90
2019-05-06T09:41:12.444Z,94.70
2019-05-06T09:44:08.668Z,95.60
2019-05-06T09:47:06.539Z,96.70
2019-05-06T09:50:03.161Z,95.70
2019-05-06T09:52:58.734Z,95.60
2019-05-06T09:56:13.334Z,96.20
2019-05-06T09:59:09.771Z,97.30
2019-05-06T10:02:05.885Z,97.00
2019-05-06T10:05:03.519Z,95.80
2019-05-06T10:07:59.155Z,95.40
2019-05-06T10:10:59.460Z,96.10
2019-05-06T10:13:52.541Z,97.10
2019-05-06T10:16:49.100Z,98.00
2019-05-06T10:19:45.044Z,99.50
2019-05-06T10:22:43.134Z,99.90
2019-05-06T10:25:40.025Z,99.80
2019-05-06T10:28:52.278Z,99.90
2019-05-06T10:31:53.666Z,99.90
2019-05-06T10:34:52.427Z,99.90
2019-05-06T10:38:12.240Z,99.40
2019-05-06T10:41:15.062Z,99.30
2019-05-06T10:44:47.077Z,99.30
2019-05-06T10:47:43.485Z,99.90
2019-05-06T10:50:44.928Z,98.50
2019-05-06T10:53:42.431Z,99.40
2019-05-06T10:56:53.041Z,98.40
2019-05-06T10:59:46.277Z,97.40
2019-05-06T11:02:53.235Z,97.20
2019-05-06T11:05:48.817Z,96.40
2019-05-06T11:08:45.043Z,95.80
2019-05-06T11:11:42.786Z,97.10
2019-05-06T11:14:38.464Z,94.50
2019-05-06T11:17:34.337Z,92.90
2019-05-06T11:20:29.808Z,90.50
2019-05-06T11:23:27.433Z,80.90
2019-05-06T11:26:23.666Z,80.20
2019-05-06T11:29:25.046Z,81.80
2019-05-06T11:32:44.439Z,88.30
2019-05-06T11:35:52.930Z,90.60
2019-05-06T11:38:52.139Z,90.70
2019-05-06T11:42:01.439Z,90.90
2019-05-06T11:44:45.218Z,91.20
2019-05-06T11:47:42.117Z,90.90
2019-05-06T11:50:37.648Z,90.60
2019-05-06T11:53:33.764Z,90.30
2019-05-06T11:56:32.546Z,91.00
2019-05-06T11:59:27.343Z,90.60
2019-05-06T12:02:23.945Z,90.00
2019-05-06T12:05:19.599Z,92.50
2019-05-06T12:08:15.762Z,90.70
2019-05-06T12:11:12.801Z,90.10
2019-05-06T12:14:12.873Z,91.90
2019-05-06T12:17:08.871Z,87.20
2019-05-06T12:20:05.915Z,77.40
2019-05-06T12:23:04.304Z,80.70
2019-05-06T12:25:59.069Z,75.70
2019-05-06T12:28:54.689Z,73.50
2019-05-06T12:31:59.062Z,76.90
2019-05-06T12:34:54.831Z,76.70
2019-05-06T12:37:53.147Z,75.60
2019-05-06T12:40:48.867Z,77.60
2019-05-06T12:43:48.863Z,80.50
2019-05-06T12:46:53.885Z,80.40
2019-05-06T12:49:50.062Z,83.80
2019-05-06T12:52:46.580Z,82.30
2019-05-06T12:55:43.137Z,82.70
2019-05-06T12:58:39.525Z,83.90
2019-05-06T13:01:34.747Z,86.30
2019-05-06T13:04:45.929Z,85.00
2019-05-06T13:07:37.296Z,87.50
2019-05-06T13:10:33.511Z,88.60
2019-05-06T13:13:29.694Z,89.90
2019-05-06T13:16:25.070Z,89.40
2019-05-06T13:19:22.633Z,90.30
2019-05-06T13:22:24.539Z,91.70
2019-05-06T13:25:23.203Z,91.30
2019-05-06T13:28:19.196Z,91.50
2019-05-06T13:31:21.518Z,91.20
2019-05-06T13:34:17.036Z,92.40
2019-05-06T13:37:12.928Z,90.30
2019-05-06T13:40:08.709Z,90.40
2019-05-06T13:43:26.426Z,89.40
2019-05-06T13:46:25.038Z,89.10
2019-05-06T13:49:26.373Z,87.80
2019-05-06T13:52:25.707Z,87.80
2019-05-06T13:55:23.051Z,83.80
2019-05-06T13:58:19.389Z,85.20
2019-05-06T14:01:19.275Z,80.10
2019-05-06T14:04:15.737Z,79.30
2019-05-06T14:07:13.069Z,84.90
2019-05-06T14:10:08.682Z,83.60
2019-05-06T14:13:04.247Z,82.70
2019-05-06T14:16:03.973Z,83.10
2019-05-06T14:19:03.984Z,81.60
2019-05-06T14:21:58.028Z,82.60
2019-05-06T14:25:12.768Z,83.30
2019-05-06T14:28:24.315Z,83.00
2019-05-06T14:31:44.477Z,82.50
2019-05-06T14:34:40.432Z,83.30
2019-05-06T14:37:41.984Z,83.20
2019-05-06T14:40:56.913Z,85.00
2019-05-06T14:43:53.270Z,83.50
2019-05-06T14:46:58.530Z,85.90
2019-05-06T14:49:54.553Z,87.20
2019-05-06T14:52:50.884Z,86.60
2019-05-06T14:55:50.048Z,86.70
2019-05-06T14:59:05.314Z,86.40
2019-05-06T15:02:02.622Z,85.40
2019-05-06T15:04:58.762Z,86.70
2019-05-06T15:07:54.073Z,84.40
2019-05-06T15:10:50.388Z,85.60
2019-05-06T15:13:45.964Z,85.40
2019-05-06T15:16:42.396Z,86.10
2019-05-06T15:19:38.254Z,87.50
2019-05-06T15:22:34.292Z,86.40
2019-05-06T15:25:32.510Z,85.10
2019-05-06T15:28:27.732Z,89.20
2019-05-06T15:31:48.113Z,86.40
2019-05-06T15:34:48.568Z,86.70
2019-05-06T15:37:56.161Z,87.10
2019-05-06T15:40:52.511Z,87.70
2019-05-06T15:43:47.960Z,90.50
2019-05-06T15:46:46.668Z,90.60
2019-05-06T15:49:42.817Z,87.50
2019-05-06T15:52:43.282Z,88.10
2019-05-06T15:55:38.050Z,86.20
2019-05-06T15:58:33.958Z,87.90
2019-05-06T16:01:33.234Z,86.50
2019-05-06T16:04:26.984Z,86.60
2019-05-06T16:07:25.885Z,87.20
2019-05-06T16:10:22.557Z,86.50
2019-05-06T16:13:19.170Z,86.90
2019-05-06T16:16:15.819Z,85.00
2019-05-06T16:19:12.973Z,87.20
2019-05-06T16:22:09.342Z,85.00
2019-05-06T16:25:09.927Z,84.60
2019-05-06T16:28:05.510Z,84.10
2019-05-06T16:31:02.508Z,83.90
2019-05-06T16:33:58.830Z,84.70
2019-05-06T16:36:55.533Z,83.80
2019-05-06T16:39:52.428Z,86.40
2019-05-06T16:42:49.523Z,87.00
2019-05-06T16:45:46.199Z,88.40
2019-05-06T16:48:45.007Z,88.60
2019-05-06T16:51:43.871Z,89.00
2019-05-06T16:54:39.191Z,89.70
2019-05-06T16:57:36.210Z,90.10
2019-05-06T17:00:33.592Z,88.90
2019-05-06T17:03:35.345Z,90.30
2019-05-06T17:06:34.606Z,90.10
2019-05-06T17:09:38.852Z,89.80
2019-05-06T17:12:36.367Z,88.00
2019-05-06T17:15:32.942Z,88.60
2019-05-06T17:18:28.908Z,89.80
2019-05-06T17:21:25.813Z,88.70
2019-05-06T17:24:27.098Z,86.70
2019-05-06T17:27:23.573Z,88.40
2019-05-06T17:30:37.634Z,89.30
2019-05-06T17:33:36.348Z,90.80
2019-05-06T17:36:36.655Z,90.00
2019-05-06T17:39:33.365Z,90.10
2019-05-06T17:42:28.608Z,90.20
2019-05-06T17:45:58.492Z,90.10
2019-05-06T17:49:12.938Z,90.30
2019-05-06T17:52:15.872Z,88.90
2019-05-06T17:55:12.633Z,90.00
2019-05-06T17:58:13.074Z,90.30
2019-05-06T18:01:12.408Z,90.80
2019-05-06T18:04:07.174Z,91.10
2019-05-06T18:07:02.616Z,92.20
2019-05-06T18:09:58.578Z,92.10
2019-05-06T18:12:54.177Z,92.10
2019-05-06T18:15:52.907Z,92.10
2019-05-06T18:18:48.527Z,92.80
2019-05-06T18:21:43.993Z,92.60
2019-05-06T18:24:40.223Z,92.60
2019-05-06T18:27:35.815Z,93.00
2019-05-06T18:30:34.425Z,94.30
2019-05-06T18:33:28.830Z,93.90
2019-05-06T18:36:24.730Z,95.20
2019-05-06T18:39:22.366Z,95.10
2019-05-06T18:42:20.393Z,94.20
2019-05-06T18:45:16.129Z,94.70
2019-05-06T18:48:12.623Z,94.50
2019-05-06T18:51:09.276Z,95.20
2019-05-06T18:54:05.962Z,95.60
2019-05-06T18:57:04.953Z,95.50
2019-05-06T19:00:02.937Z,96.70
2019-05-06T19:02:58.067Z,96.30
2019-05-06T19:05:54.593Z,97.20
2019-05-06T19:09:02.573Z,96.90
2019-05-06T19:12:03.771Z,97.40
2019-05-06T19:14:59.756Z,97.90
2019-05-06T19:17:55.766Z,98.20
2019-05-06T19:20:53.073Z,98.30
2019-05-06T19:23:48.998Z,98.80
2019-05-06T19:26:45.713Z,98.40
2019-05-06T19:29:43.277Z,99.00
2019-05-06T19:32:39.285Z,99.90
2019-05-06T19:35:37.069Z,99.50
2019-05-06T19:38:33.724Z,99.70
2019-05-06T19:41:29.493Z,99.90
2019-05-06T19:44:26.032Z,99.90
2019-05-06T19:47:22.500Z,99.90
2019-05-06T19:50:21.137Z,99.90
2019-05-06T19:53:16.081Z,99.90
2019-05-06T19:56:12.423Z,99.90
2019-05-06T19:59:08.949Z,99.90
2019-05-06T20:02:05.507Z,99.90
2019-05-06T20:05:04.686Z,99.90
2019-05-06T20:08:23.141Z,99.90
2019-05-06T20:11:30.507Z,99.90
2019-05-06T20:14:26.985Z,99.90
2019-05-06T20:17:23.312Z,99.90
2019-05-06T20:20:19.916Z,99.90
2019-05-06T20:23:15.347Z,99.90
2019-05-06T20:26:12.433Z,99.90
2019-05-06T20:29:08.228Z,99.90
2019-05-06T20:32:04.350Z,99.90
2019-05-06T20:35:00.123Z,99.90
2019-05-06T20:37:56.716Z,99.90
2019-05-06T20:40:53.000Z,99.90
2019-05-06T20:43:49.605Z,99.90
2019-05-06T20:46:45.139Z,99.90
2019-05-06T20:49:43.133Z,99.90
2019-05-06T20:52:39.814Z,99.90
2019-05-06T20:55:37.785Z,99.90
2019-05-06T20:58:33.608Z,99.90
2019-05-06T21:01:30.123Z,99.90
2019-05-06T21:04:25.571Z,99.90
2019-05-06T21:07:23.074Z,99.90
2019-05-06T21:10:18.463Z,99.90
2019-05-06T21:13:29.429Z,99.90
2019-05-06T21:16:18.799Z,99.90
2019-05-06T21:19:16.241Z,99.90
2019-05-06T21:22:13.233Z,99.90
2019-05-06T21:25:10.184Z,99.90
2019-05-06T21:28:06.775Z,99.90
2019-05-06T21:31:03.386Z,99.90
2019-05-06T21:34:00.671Z,99.90
2019-05-06T21:36:57.078Z,99.90
2019-05-06T21:39:53.036Z,99.90
2019-05-06T21:42:50.379Z,99.90
2019-05-06T21:45:45.780Z,99.90
2019-05-06T21:48:42.453Z,99.90
2019-05-06T21:51:42.487Z,99.90
2019-05-06T21:54:43.249Z,99.90
2019-05-06T21:57:39.400Z,99.90
2019-05-06T22:00:46.499Z,99.90
2019-05-06T22:03:43.391Z,99.90
2019-05-06T22:06:42.777Z,99.90
2019-05-06T22:09:37.715Z,99.90
2019-05-06T22:12:34.559Z,99.90
2019-05-06T22:15:32.433Z,99.90
2019-05-06T22:18:30.812Z,99.90
2019-05-06T22:21:25.990Z,99.90
2019-05-06T22:24:23.290Z,99.90
2019-05-06T22:27:19.150Z,99.90
2019-05-06T22:30:15.830Z,99.90
2019-05-06T22:33:15.258Z,99.90
2019-05-06T22:36:13.185Z,99.90
2019-05-06T22:39:11.867Z,99.90
2019-05-06T22:42:10.145Z,99.90
2019-05-06T22:45:06.224Z,99.90
2019-05-06T22:48:02.091Z,99.90
2019-05-06T22:50:59.213Z,99.90
2019-05-06T22:53:56.015Z,99.90
2019-05-06T22:56:54.388Z,99.90
2019-05-06T22:59:49.617Z,99.90
2019-05-06T23:02:55.595Z,99.90
2019-05-06T23:05:51.997Z,99.90
2019-05-06T23:08:48.413Z,99.90
2019-05-06T23:11:45.757Z,99.90
2019-05-06T23:14:42.161Z,99.90
2019-05-06T23:17:38.116Z,99.90
2019-05-06T23:20:34.975Z,99.90
2019-05-06T23:23:32.934Z,99.90
2019-05-06T23:26:28.139Z,99.90
2019-05-06T23:29:23.785Z,99.90
2019-05-06T23:32:19.388Z,99.90
2019-05-06T23:35:14.959Z,99.90
2019-05-06T23:39:06.147Z,99.90
2019-05-06T23:42:59.114Z,99.90
2019-05-06T23:46:48.443Z,99.90
2019-05-06T23:50:38.381Z,99.90
2019-05-06T23:54:28.565Z,99.90
2019-05-06T23:57:22.533Z,99.90
